sensor_id;sensor_type;location;lat;lon;timestamp;pressure;altitude;pressure_sealevel;temperature;humidity
77626;BME280;66794;43.764;10.436;2023-09-18T00:00:12;101929.50;;;20.48;100.00
77626;BME280;66794;43.764;10.436;2023-09-18T00:02:58;101955.97;;;20.56;100.00
77626;BME280;66794;43.764;10.436;2023-09-18T00:05:48;101948.78;;;20.48;100.00
77626;BME280;66794;43.764;10.436;2023-09-18T00:08:34;101955.72;;;20.31;100.00
77626;BME280;66794;43.764;10.436;2023-09-18T00:11:20;101947.28;;;20.52;100.00
77626;BME280;66794;43.764;10.436;2023-09-18T00:14:07;101947.72;;;20.56;100.00
77626;BME280;66794;43.764;10.436;2023-09-18T00:16:52;101956.59;;;20.51;100.00
77626;BME280;66794;43.764;10.436;2023-09-18T00:19:38;101980.72;;;20.49;100.00
77626;BME280;66794;43.764;10.436;2023-09-18T00:22:24;101976.06;;;20.63;100.00
77626;BME280;66794;43.764;10.436;2023-09-18T00:25:10;101970.75;;;20.88;100.00
77626;BME280;66794;43.764;10.436;2023-09-18T00:27:56;101950.44;;;20.69;100.00
77626;BME280;66794;43.764;10.436;2023-09-18T00:30:42;101945.78;;;20.43;100.00
77626;BME280;66794;43.764;10.436;2023-09-18T00:33:32;101951.50;;;20.55;100.00
77626;BME280;66794;43.764;10.436;2023-09-18T00:36:18;101973.97;;;20.71;100.00
77626;BME280;66794;43.764;10.436;2023-09-18T00:39:04;101972.47;;;20.49;100.00
77626;BME280;66794;43.764;10.436;2023-09-18T00:41:49;101990.84;;;20.02;100.00
77626;BME280;66794;43.764;10.436;2023-09-18T00:44:40;102009.88;;;20.10;100.00
77626;BME280;66794;43.764;10.436;2023-09-18T00:47:29;102003.53;;;20.16;100.00
77626;BME280;66794;43.764;10.436;2023-09-18T00:50:15;101997.44;;;20.54;100.00
77626;BME280;66794;43.764;10.436;2023-09-18T00:53:01;102002.94;;;20.54;100.00
77626;BME280;66794;43.764;10.436;2023-09-18T00:55:49;102009.72;;;20.78;100.00
77626;BME280;66794;43.764;10.436;2023-09-18T00:58:36;102005.09;;;20.72;100.00
77626;BME280;66794;43.764;10.436;2023-09-18T01:01:22;102006.56;;;20.74;100.00
77626;BME280;66794;43.764;10.436;2023-09-18T01:04:08;101997.84;;;20.84;100.00
77626;BME280;66794;43.764;10.436;2023-09-18T01:06:55;101986.03;;;20.64;100.00
77626;BME280;66794;43.764;10.436;2023-09-18T01:09:42;101987.09;;;20.56;100.00
77626;BME280;66794;43.764;10.436;2023-09-18T01:12:34;101977.56;;;20.72;100.00
77626;BME280;66794;43.764;10.436;2023-09-18T01:15:27;101998.06;;;20.69;100.00
77626;BME280;66794;43.764;10.436;2023-09-18T01:18:15;101977.34;;;20.73;100.00
77626;BME280;66794;43.764;10.436;2023-09-18T01:21:02;102000.75;;;21.09;100.00
77626;BME280;66794;43.764;10.436;2023-09-18T01:23:48;101977.69;;;20.97;100.00
77626;BME280;66794;43.764;10.436;2023-09-18T01:26:35;101965.44;;;20.86;100.00
77626;BME280;66794;43.764;10.436;2023-09-18T01:29:20;101956.91;;;21.08;100.00
77626;BME280;66794;43.764;10.436;2023-09-18T01:32:06;101965.03;;;20.89;100.00
77626;BME280;66794;43.764;10.436;2023-09-18T01:34:54;101953.56;;;20.92;100.00
77626;BME280;66794;43.764;10.436;2023-09-18T01:37:40;101990.25;;;20.73;100.00
77626;BME280;66794;43.764;10.436;2023-09-18T01:40:26;101979.03;;;20.35;100.00
77626;BME280;66794;43.764;10.436;2023-09-18T01:43:13;101981.59;;;20.56;100.00
77626;BME280;66794;43.764;10.436;2023-09-18T01:45:59;101980.28;;;20.39;100.00
77626;BME280;66794;43.764;10.436;2023-09-18T01:48:46;101964.44;;;20.61;100.00
77626;BME280;66794;43.764;10.436;2023-09-18T01:51:32;101962.94;;;20.45;100.00
77626;BME280;66794;43.764;10.436;2023-09-18T01:54:18;101961.28;;;20.51;100.00
77626;BME280;66794;43.764;10.436;2023-09-18T01:57:04;101942.81;;;20.64;100.00
77626;BME280;66794;43.764;10.436;2023-09-18T01:59:50;101923.97;;;20.74;100.00
77626;BME280;66794;43.764;10.436;2023-09-18T02:02:36;101929.88;;;20.85;100.00
77626;BME280;66794;43.764;10.436;2023-09-18T02:05:22;101937.03;;;20.99;100.00
77626;BME280;66794;43.764;10.436;2023-09-18T02:08:09;101928.00;;;20.59;100.00
77626;BME280;66794;43.764;10.436;2023-09-18T02:10:54;101951.72;;;20.40;100.00
77626;BME280;66794;43.764;10.436;2023-09-18T02:13:40;101938.59;;;20.29;100.00
77626;BME280;66794;43.764;10.436;2023-09-18T02:16:27;101943.47;;;20.40;100.00
77626;BME280;66794;43.764;10.436;2023-09-18T02:19:13;101951.94;;;20.71;100.00
77626;BME280;66794;43.764;10.436;2023-09-18T02:21:59;101943.22;;;20.81;100.00
77626;BME280;66794;43.764;10.436;2023-09-18T02:24:45;101925.44;;;20.70;100.00
77626;BME280;66794;43.764;10.436;2023-09-18T02:27:31;101904.09;;;20.59;100.00
77626;BME280;66794;43.764;10.436;2023-09-18T02:30:17;101863.69;;;20.20;100.00
77626;BME280;66794;43.764;10.436;2023-09-18T02:33:04;101889.69;;;20.57;100.00
77626;BME280;66794;43.764;10.436;2023-09-18T02:35:50;101880.81;;;20.42;100.00
77626;BME280;66794;43.764;10.436;2023-09-18T02:38:36;101889.94;;;20.22;100.00
77626;BME280;66794;43.764;10.436;2023-09-18T02:41:22;101899.03;;;20.10;100.00
77626;BME280;66794;43.764;10.436;2023-09-18T02:44:08;101901.13;;;20.14;100.00
77626;BME280;66794;43.764;10.436;2023-09-18T02:46:53;101901.56;;;20.18;100.00
77626;BME280;66794;43.764;10.436;2023-09-18T02:49:39;101908.34;;;20.29;100.00
77626;BME280;66794;43.764;10.436;2023-09-18T02:52:25;101920.19;;;20.03;100.00
77626;BME280;66794;43.764;10.436;2023-09-18T02:55:10;101936.22;;;19.79;100.00
77626;BME280;66794;43.764;10.436;2023-09-18T02:57:56;101934.38;;;20.13;100.00
77626;BME280;66794;43.764;10.436;2023-09-18T03:00:43;101954.88;;;20.23;100.00
77626;BME280;66794;43.764;10.436;2023-09-18T03:03:29;101973.94;;;20.32;100.00
77626;BME280;66794;43.764;10.436;2023-09-18T03:06:15;101937.13;;;20.13;100.00
77626;BME280;66794;43.764;10.436;2023-09-18T03:09:00;101960.16;;;20.38;100.00
77626;BME280;66794;43.764;10.436;2023-09-18T03:11:46;101956.59;;;20.51;100.00
77626;BME280;66794;43.764;10.436;2023-09-18T03:14:32;101977.34;;;20.34;100.00
77626;BME280;66794;43.764;10.436;2023-09-18T03:17:17;101994.22;;;20.04;100.00
77626;BME280;66794;43.764;10.436;2023-09-18T03:20:03;102005.41;;;19.96;100.00
77626;BME280;66794;43.764;10.436;2023-09-18T03:22:51;101997.81;;;20.11;100.00
77626;BME280;66794;43.764;10.436;2023-09-18T03:25:37;101990.44;;;20.38;100.00
77626;BME280;66794;43.764;10.436;2023-09-18T03:28:23;101988.16;;;20.62;100.00
77626;BME280;66794;43.764;10.436;2023-09-18T03:31:09;101975.44;;;20.67;100.00
77626;BME280;66794;43.764;10.436;2023-09-18T03:33:54;101966.97;;;20.69;100.00
77626;BME280;66794;43.764;10.436;2023-09-18T03:36:40;101964.44;;;20.67;100.00
77626;BME280;66794;43.764;10.436;2023-09-18T03:39:26;101970.34;;;20.78;100.00
77626;BME280;66794;43.764;10.436;2023-09-18T03:42:11;101975.66;;;20.72;100.00
77626;BME280;66794;43.764;10.436;2023-09-18T03:44:57;101972.47;;;20.49;100.00
77626;BME280;66794;43.764;10.436;2023-09-18T03:47:43;101973.75;;;20.53;100.00
77626;BME280;66794;43.764;10.436;2023-09-18T03:50:29;101970.34;;;20.64;100.00
77626;BME280;66794;43.764;10.436;2023-09-18T03:53:15;101977.34;;;20.67;100.00
77626;BME280;66794;43.764;10.436;2023-09-18T03:56:01;101982.63;;;20.48;100.00
77626;BME280;66794;43.764;10.436;2023-09-18T03:58:47;101992.56;;;20.43;100.00
77626;BME280;66794;43.764;10.436;2023-09-18T04:01:34;101990.44;;;20.32;100.00
77626;BME280;66794;43.764;10.436;2023-09-18T04:04:20;102008.00;;;20.24;100.00
77626;BME280;66794;43.764;10.436;2023-09-18T04:07:06;101989.81;;;20.23;100.00
77626;BME280;66794;43.764;10.436;2023-09-18T04:09:52;102000.66;;;20.51;100.00
77626;BME280;66794;43.764;10.436;2023-09-18T04:12:38;101978.63;;;20.51;100.00
77626;BME280;66794;43.764;10.436;2023-09-18T04:15:24;101990.47;;;20.58;100.00
77626;BME280;66794;43.764;10.436;2023-09-18T04:18:11;101988.31;;;20.20;100.00
77626;BME280;66794;43.764;10.436;2023-09-18T04:20:56;102035.72;;;20.22;100.00
77626;BME280;66794;43.764;10.436;2023-09-18T04:23:42;102074.13;;;19.89;100.00
77626;BME280;66794;43.764;10.436;2023-09-18T04:26:28;102110.00;;;20.22;100.00
77626;BME280;66794;43.764;10.436;2023-09-18T04:29:17;102088.38;;;20.06;100.00
77626;BME280;66794;43.764;10.436;2023-09-18T04:32:04;102086.72;;;20.25;100.00
77626;BME280;66794;43.764;10.436;2023-09-18T04:34:50;102085.66;;;20.33;100.00
77626;BME280;66794;43.764;10.436;2023-09-18T04:37:37;102082.34;;;20.51;100.00
77626;BME280;66794;43.764;10.436;2023-09-18T04:40:23;102047.41;;;20.44;100.00
77626;BME280;66794;43.764;10.436;2023-09-18T04:43:09;102051.44;;;20.68;100.00
77626;BME280;66794;43.764;10.436;2023-09-18T04:45:55;102045.53;;;20.78;100.00
77626;BME280;66794;43.764;10.436;2023-09-18T04:48:41;102045.72;;;20.83;100.00
77626;BME280;66794;43.764;10.436;2023-09-18T04:51:27;102047.00;;;20.61;100.00
77626;BME280;66794;43.764;10.436;2023-09-18T04:54:13;102062.84;;;20.45;100.00
77626;BME280;66794;43.764;10.436;2023-09-18T04:56:58;102046.78;;;20.62;100.00
77626;BME280;66794;43.764;10.436;2023-09-18T04:59:44;102036.19;;;20.59;100.00
77626;BME280;66794;43.764;10.436;2023-09-18T05:02:30;101995.09;;;20.71;100.00
77626;BME280;66794;43.764;10.436;2023-09-18T05:05:15;102011.19;;;20.87;100.00
77626;BME280;66794;43.764;10.436;2023-09-18T05:08:03;102013.75;;;20.89;100.00
77626;BME280;66794;43.764;10.436;2023-09-18T05:10:50;102011.41;;;20.59;100.00
77626;BME280;66794;43.764;10.436;2023-09-18T05:13:36;102015.00;;;20.80;100.00
77626;BME280;66794;43.764;10.436;2023-09-18T05:16:21;102003.56;;;20.89;100.00
77626;BME280;66794;43.764;10.436;2023-09-18T05:19:07;102013.94;;;21.00;100.00
77626;BME280;66794;43.764;10.436;2023-09-18T05:21:53;101982.34;;;21.03;100.00
77626;BME280;66794;43.764;10.436;2023-09-18T05:24:39;101992.94;;;21.06;100.00
77626;BME280;66794;43.764;10.436;2023-09-18T05:27:25;101999.06;;;21.08;100.00
77626;BME280;66794;43.764;10.436;2023-09-18T05:30:12;101992.88;;;21.19;100.00
77626;BME280;66794;43.764;10.436;2023-09-18T05:32:59;101991.22;;;21.12;100.00
77626;BME280;66794;43.764;10.436;2023-09-18T05:35:51;101979.00;;;20.94;100.00
77626;BME280;66794;43.764;10.436;2023-09-18T05:38:37;101986.78;;;21.11;100.00
77626;BME280;66794;43.764;10.436;2023-09-18T05:41:23;101963.47;;;21.13;100.00
77626;BME280;66794;43.764;10.436;2023-09-18T05:44:11;101977.44;;;21.32;100.00
77626;BME280;66794;43.764;10.436;2023-09-18T05:46:57;101972.31;;;21.28;100.00
77626;BME280;66794;43.764;10.436;2023-09-18T05:49:43;101950.06;;;21.23;100.00
77626;BME280;66794;43.764;10.436;2023-09-18T05:52:29;101940.53;;;21.33;100.00
77626;BME280;66794;43.764;10.436;2023-09-18T05:55:15;101948.53;;;21.41;100.00
77626;BME280;66794;43.764;10.436;2023-09-18T05:58:01;101960.22;;;21.43;100.00
77626;BME280;66794;43.764;10.436;2023-09-18T06:00:49;101956.69;;;21.16;100.00
77626;BME280;66794;43.764;10.436;2023-09-18T06:03:35;101974.25;;;21.15;100.00
77626;BME280;66794;43.764;10.436;2023-09-18T06:06:21;101965.75;;;21.23;100.00
77626;BME280;66794;43.764;10.436;2023-09-18T06:09:07;101972.53;;;21.34;100.00
77626;BME280;66794;43.764;10.436;2023-09-18T06:11:53;101990.97;;;21.26;100.00
77626;BME280;66794;43.764;10.436;2023-09-18T06:14:38;101985.38;;;21.60;100.00
77626;BME280;66794;43.764;10.436;2023-09-18T06:17:24;101955.47;;;21.57;100.00
77626;BME280;66794;43.764;10.436;2023-09-18T06:20:11;101969.75;;;21.78;100.00
77626;BME280;66794;43.764;10.436;2023-09-18T06:22:58;101957.31;;;22.01;100.00
77626;BME280;66794;43.764;10.436;2023-09-18T06:25:44;101953.78;;;22.25;100.00
77626;BME280;66794;43.764;10.436;2023-09-18T06:28:29;101939.91;;;22.32;100.00
77626;BME280;66794;43.764;10.436;2023-09-18T06:31:15;101944.97;;;22.60;100.00
77626;BME280;66794;43.764;10.436;2023-09-18T06:34:02;101920.13;;;22.60;100.00
77626;BME280;66794;43.764;10.436;2023-09-18T06:36:47;101919.00;;;22.86;100.00
77626;BME280;66794;43.764;10.436;2023-09-18T06:39:33;101899.50;;;22.99;100.00
77626;BME280;66794;43.764;10.436;2023-09-18T06:42:19;101897.88;;;23.28;100.00
77626;BME280;66794;43.764;10.436;2023-09-18T06:45:06;101877.75;;;23.40;100.00
77626;BME280;66794;43.764;10.436;2023-09-18T06:47:52;101876.56;;;23.66;100.00
77626;BME280;66794;43.764;10.436;2023-09-18T06:50:38;101865.66;;;23.52;100.00
77626;BME280;66794;43.764;10.436;2023-09-18T06:53:26;101860.84;;;23.90;100.00
77626;BME280;66794;43.764;10.436;2023-09-18T06:56:12;101868.44;;;23.94;100.00
77626;BME280;66794;43.764;10.436;2023-09-18T06:58:58;101875.19;;;23.98;100.00
77626;BME280;66794;43.764;10.436;2023-09-18T07:01:44;101879.00;;;23.85;100.00
77626;BME280;66794;43.764;10.436;2023-09-18T07:04:09;101893.66;;;23.86;100.00
77626;BME280;66794;43.764;10.436;2023-09-18T07:06:35;101909.69;;;23.96;100.00
77626;BME280;66794;43.764;10.436;2023-09-18T07:09:00;101935.69;;;23.95;100.00
77626;BME280;66794;43.764;10.436;2023-09-18T07:11:27;101938.56;;;23.88;100.00
77626;BME280;66794;43.764;10.436;2023-09-18T07:13:52;101926.13;;;23.79;100.00
77626;BME280;66794;43.764;10.436;2023-09-18T07:16:17;101936.59;;;23.77;100.00
77626;BME280;66794;43.764;10.436;2023-09-18T07:18:43;101955.81;;;23.72;100.00
77626;BME280;66794;43.764;10.436;2023-09-18T07:21:08;101923.31;;;23.67;100.00
77626;BME280;66794;43.764;10.436;2023-09-18T07:23:34;101937.34;;;23.96;100.00
77626;BME280;66794;43.764;10.436;2023-09-18T07:26:02;101931.41;;;24.34;100.00
77626;BME280;66794;43.764;10.436;2023-09-18T07:28:28;101911.09;;;24.40;100.00
77626;BME280;66794;43.764;10.436;2023-09-18T07:30:53;101917.50;;;24.64;100.00
77626;BME280;66794;43.764;10.436;2023-09-18T07:33:19;101896.25;;;24.81;100.00
77626;BME280;66794;43.764;10.436;2023-09-18T07:35:49;101884.31;;;24.92;100.00
77626;BME280;66794;43.764;10.436;2023-09-18T07:38:17;101866.81;;;25.04;100.00
77626;BME280;66794;43.764;10.436;2023-09-18T07:40:44;101866.69;;;24.99;100.00
77626;BME280;66794;43.764;10.436;2023-09-18T07:43:11;101877.47;;;24.83;100.00
77626;BME280;66794;43.764;10.436;2023-09-18T07:45:38;101898.63;;;24.89;100.00
77626;BME280;66794;43.764;10.436;2023-09-18T07:48:06;101875.75;;;25.06;100.00
77626;BME280;66794;43.764;10.436;2023-09-18T07:50:31;101878.81;;;25.21;100.00
77626;BME280;66794;43.764;10.436;2023-09-18T07:52:58;101881.16;;;25.12;100.00
77626;BME280;66794;43.764;10.436;2023-09-18T07:55:24;101873.59;;;25.08;100.00
77626;BME280;66794;43.764;10.436;2023-09-18T07:57:49;101890.16;;;25.20;100.00
77626;BME280;66794;43.764;10.436;2023-09-18T08:00:16;101891.38;;;25.00;100.00
77626;BME280;66794;43.764;10.436;2023-09-18T08:02:42;101897.91;;;25.06;100.00
77626;BME280;66794;43.764;10.436;2023-09-18T08:05:08;101893.19;;;25.18;100.00
77626;BME280;66794;43.764;10.436;2023-09-18T08:07:35;101881.34;;;25.23;100.00
77626;BME280;66794;43.764;10.436;2023-09-18T08:10:02;101903.94;;;25.43;100.00
77626;BME280;66794;43.764;10.436;2023-09-18T08:12:31;101904.72;;;25.27;100.00
77626;BME280;66794;43.764;10.436;2023-09-18T08:14:57;101893.13;;;25.58;100.00
77626;BME280;66794;43.764;10.436;2023-09-18T08:17:25;101906.91;;;25.99;100.00
77626;BME280;66794;43.764;10.436;2023-09-18T08:19:51;101906.69;;;26.00;100.00
77626;BME280;66794;43.764;10.436;2023-09-18T08:22:17;101887.09;;;26.07;100.00
77626;BME280;66794;43.764;10.436;2023-09-18T08:24:45;101872.72;;;26.10;100.00
77626;BME280;66794;43.764;10.436;2023-09-18T08:27:13;101869.69;;;26.11;100.00
77626;BME280;66794;43.764;10.436;2023-09-18T08:29:38;101879.75;;;26.17;100.00
77626;BME280;66794;43.764;10.436;2023-09-18T08:32:04;101883.28;;;26.13;100.00
77626;BME280;66794;43.764;10.436;2023-09-18T08:34:29;101875.13;;;26.23;100.00
77626;BME280;66794;43.764;10.436;2023-09-18T08:36:55;101889.13;;;26.11;100.00
77626;BME280;66794;43.764;10.436;2023-09-18T08:39:20;101866.16;;;26.16;100.00
77626;BME280;66794;43.764;10.436;2023-09-18T08:41:51;101873.94;;;26.19;100.00
77626;BME280;66794;43.764;10.436;2023-09-18T08:44:22;101887.59;;;26.37;100.00
77626;BME280;66794;43.764;10.436;2023-09-18T08:46:51;101886.97;;;26.35;100.00
77626;BME280;66794;43.764;10.436;2023-09-18T08:49:17;101894.63;;;26.62;100.00
77626;BME280;66794;43.764;10.436;2023-09-18T08:51:43;101878.22;;;26.60;100.00
77626;BME280;66794;43.764;10.436;2023-09-18T08:54:09;101856.84;;;26.83;100.00
77626;BME280;66794;43.764;10.436;2023-09-18T08:56:35;101866.38;;;27.09;100.00
77626;BME280;66794;43.764;10.436;2023-09-18T08:59:00;101887.88;;;27.40;100.00
77626;BME280;66794;43.764;10.436;2023-09-18T09:01:26;101865.66;;;27.45;100.00
77626;BME280;66794;43.764;10.436;2023-09-18T09:03:51;101885.63;;;27.37;100.00
77626;BME280;66794;43.764;10.436;2023-09-18T09:06:17;101875.53;;;27.31;100.00
77626;BME280;66794;43.764;10.436;2023-09-18T09:08:42;101888.84;;;27.29;100.00
77626;BME280;66794;43.764;10.436;2023-09-18T09:11:08;101874.03;;;27.23;100.00
77626;BME280;66794;43.764;10.436;2023-09-18T09:13:34;101877.66;;;27.02;100.00
77626;BME280;66794;43.764;10.436;2023-09-18T09:15:59;101895.38;;;27.40;100.00
77626;BME280;66794;43.764;10.436;2023-09-18T09:18:29;101893.59;;;27.07;100.00
77626;BME280;66794;43.764;10.436;2023-09-18T09:23:29;101863.69;;;27.68;100.00
77626;BME280;66794;43.764;10.436;2023-09-18T09:26:12;101860.53;;;27.86;100.00
77626;BME280;66794;43.764;10.436;2023-09-18T09:28:37;101852.66;;;27.78;100.00
77626;BME280;66794;43.764;10.436;2023-09-18T09:31:03;101861.94;;;27.62;100.00
77626;BME280;66794;43.764;10.436;2023-09-18T09:33:29;101867.75;;;27.60;100.00
77626;BME280;66794;43.764;10.436;2023-09-18T09:35:55;101868.72;;;28.03;100.00
77626;BME280;66794;43.764;10.436;2023-09-18T09:38:28;101837.50;;;27.96;100.00
77626;BME280;66794;43.764;10.436;2023-09-18T09:40:54;101823.56;;;27.64;100.00
77626;BME280;66794;43.764;10.436;2023-09-18T09:43:19;101811.84;;;27.30;100.00
77626;BME280;66794;43.764;10.436;2023-09-18T09:45:46;101832.47;;;27.66;100.00
77626;BME280;66794;43.764;10.436;2023-09-18T09:48:11;101804.50;;;27.77;100.00
77626;BME280;66794;43.764;10.436;2023-09-18T09:50:45;101817.66;;;28.24;100.00
77626;BME280;66794;43.764;10.436;2023-09-18T09:53:14;101801.97;;;28.13;100.00
77626;BME280;66794;43.764;10.436;2023-09-18T09:55:40;101825.16;;;28.66;100.00
77626;BME280;66794;43.764;10.436;2023-09-18T09:58:07;101818.75;;;28.76;100.00
77626;BME280;66794;43.764;10.436;2023-09-18T10:00:38;101823.28;;;28.92;100.00
77626;BME280;66794;43.764;10.436;2023-09-18T10:03:12;101837.72;;;28.31;100.00
77626;BME280;66794;43.764;10.436;2023-09-18T10:05:40;101847.59;;;28.07;100.00
77626;BME280;66794;43.764;10.436;2023-09-18T10:08:21;101837.97;;;28.25;100.00
77626;BME280;66794;43.764;10.436;2023-09-18T10:10:52;101846.72;;;28.01;100.00
77626;BME280;66794;43.764;10.436;2023-09-18T10:13:22;101843.00;;;27.59;100.00
77626;BME280;66794;43.764;10.436;2023-09-18T10:15:53;101828.25;;;27.58;100.00
77626;BME280;66794;43.764;10.436;2023-09-18T10:18:32;101861.13;;;27.66;100.00
77626;BME280;66794;43.764;10.436;2023-09-18T10:26:23;101841.16;;;27.42;100.00
77626;BME280;66794;43.764;10.436;2023-09-18T10:28:56;101859.69;;;27.32;100.00
77626;BME280;66794;43.764;10.436;2023-09-18T10:31:28;101858.91;;;27.36;100.00
77626;BME280;66794;43.764;10.436;2023-09-18T10:33:56;101828.09;;;27.16;100.00
77626;BME280;66794;43.764;10.436;2023-09-18T10:36:24;101829.47;;;27.13;100.00
77626;BME280;66794;43.764;10.436;2023-09-18T10:38:50;101849.22;;;27.17;100.00
77626;BME280;66794;43.764;10.436;2023-09-18T10:41:20;101858.66;;;27.16;100.00
77626;BME280;66794;43.764;10.436;2023-09-18T10:43:46;101841.25;;;27.04;100.00
77626;BME280;66794;43.764;10.436;2023-09-18T10:46:15;101838.72;;;27.02;100.00
77626;BME280;66794;43.764;10.436;2023-09-18T10:48:42;101839.78;;;26.96;100.00
77626;BME280;66794;43.764;10.436;2023-09-18T10:51:09;101823.34;;;26.94;100.00
77626;BME280;66794;43.764;10.436;2023-09-18T10:53:35;101833.59;;;27.11;100.00
77626;BME280;66794;43.764;10.436;2023-09-18T10:56:02;101826.66;;;26.91;100.00
77626;BME280;66794;43.764;10.436;2023-09-18T10:58:29;101813.84;;;26.90;100.00
77626;BME280;66794;43.764;10.436;2023-09-18T11:00:59;101829.63;;;27.07;100.00
77626;BME280;66794;43.764;10.436;2023-09-18T11:03:25;101832.66;;;27.05;100.00
77626;BME280;66794;43.764;10.436;2023-09-18T11:06:02;101849.00;;;27.01;100.00
77626;BME280;66794;43.764;10.436;2023-09-18T11:08:30;101834.31;;;27.06;100.00
77626;BME280;66794;43.764;10.436;2023-09-18T11:11:08;101840.88;;;27.17;100.00
77626;BME280;66794;43.764;10.436;2023-09-18T11:13:43;101813.13;;;27.22;100.00
77626;BME280;66794;43.764;10.436;2023-09-18T11:16:19;101816.75;;;27.22;100.00
77626;BME280;66794;43.764;10.436;2023-09-18T11:21:25;101801.31;;;27.10;100.00
77626;BME280;66794;43.764;10.436;2023-09-18T11:24:04;101805.38;;;27.24;100.00
77626;BME280;66794;43.764;10.436;2023-09-18T11:26:35;101787.88;;;27.29;100.00
77626;BME280;66794;43.764;10.436;2023-09-18T11:29:04;101802.09;;;27.32;100.00
77626;BME280;66794;43.764;10.436;2023-09-18T11:34:25;101832.25;;;27.40;100.00
77626;BME280;66794;43.764;10.436;2023-09-18T11:36:57;101816.69;;;27.44;100.00
77626;BME280;66794;43.764;10.436;2023-09-18T11:39:37;101815.16;;;27.86;100.00
77626;BME280;66794;43.764;10.436;2023-09-18T11:42:17;101828.28;;;27.90;100.00
77626;BME280;66794;43.764;10.436;2023-09-18T11:44:44;101831.63;;;27.92;100.00
77626;BME280;66794;43.764;10.436;2023-09-18T11:47:17;101804.31;;;27.89;100.00
77626;BME280;66794;43.764;10.436;2023-09-18T11:49:57;101827.00;;;28.08;100.00
77626;BME280;66794;43.764;10.436;2023-09-18T11:52:27;101811.22;;;27.82;100.00
77626;BME280;66794;43.764;10.436;2023-09-18T11:54:56;101829.84;;;27.81;100.00
77626;BME280;66794;43.764;10.436;2023-09-18T11:57:22;101847.22;;;27.93;100.00
77626;BME280;66794;43.764;10.436;2023-09-18T11:59:48;101847.84;;;28.00;100.00
77626;BME280;66794;43.764;10.436;2023-09-18T12:02:26;101848.13;;;28.04;100.00
77626;BME280;66794;43.764;10.436;2023-09-18T12:04:54;101833.13;;;28.10;100.00
77626;BME280;66794;43.764;10.436;2023-09-18T12:07:19;101807.28;;;27.77;100.00
77626;BME280;66794;43.764;10.436;2023-09-18T12:09:45;101799.28;;;27.86;100.00
77626;BME280;66794;43.764;10.436;2023-09-18T12:12:11;101796.13;;;28.15;100.00
77626;BME280;66794;43.764;10.436;2023-09-18T12:14:39;101801.53;;;28.31;100.00
77626;BME280;66794;43.764;10.436;2023-09-18T12:17:07;101766.75;;;27.92;100.00
77626;BME280;66794;43.764;10.436;2023-09-18T12:19:34;101783.41;;;28.29;100.00
77626;BME280;66794;43.764;10.436;2023-09-18T12:22:00;101772.72;;;28.16;100.00
77626;BME280;66794;43.764;10.436;2023-09-18T12:24:26;101787.81;;;28.20;100.00
77626;BME280;66794;43.764;10.436;2023-09-18T12:26:53;101770.94;;;28.37;100.00
77626;BME280;66794;43.764;10.436;2023-09-18T12:29:20;101782.47;;;28.55;100.00
77626;BME280;66794;43.764;10.436;2023-09-18T12:31:46;101778.50;;;28.41;100.00
77626;BME280;66794;43.764;10.436;2023-09-18T12:34:18;101763.75;;;28.46;100.00
77626;BME280;66794;43.764;10.436;2023-09-18T12:36:46;101758.00;;;28.78;100.00
77626;BME280;66794;43.764;10.436;2023-09-18T12:39:13;101749.09;;;28.71;100.00
77626;BME280;66794;43.764;10.436;2023-09-18T12:41:42;101760.16;;;28.55;100.00
77626;BME280;66794;43.764;10.436;2023-09-18T12:44:08;101751.72;;;28.35;100.00
77626;BME280;66794;43.764;10.436;2023-09-18T12:46:35;101732.31;;;28.08;100.00
77626;BME280;66794;43.764;10.436;2023-09-18T12:49:20;101748.38;;;28.33;100.00
77626;BME280;66794;43.764;10.436;2023-09-18T12:54:39;101748.97;;;28.45;100.00
77626;BME280;66794;43.764;10.436;2023-09-18T12:57:05;101745.06;;;28.41;100.00
77626;BME280;66794;43.764;10.436;2023-09-18T12:59:35;101744.28;;;28.56;100.00
77626;BME280;66794;43.764;10.436;2023-09-18T13:02:05;101742.81;;;28.43;100.00
77626;BME280;66794;43.764;10.436;2023-09-18T13:04:35;101745.38;;;28.50;100.00
77626;BME280;66794;43.764;10.436;2023-09-18T13:07:10;101723.16;;;28.13;100.00
77626;BME280;66794;43.764;10.436;2023-09-18T13:09:37;101708.09;;;28.09;100.00
77626;BME280;66794;43.764;10.436;2023-09-18T13:12:03;101694.38;;;27.97;100.00
77626;BME280;66794;43.764;10.436;2023-09-18T13:14:29;101716.38;;;27.98;100.00
77626;BME280;66794;43.764;10.436;2023-09-18T13:17:00;101717.75;;;27.91;100.00
77626;BME280;66794;43.764;10.436;2023-09-18T13:19:25;101719.09;;;27.88;100.00
77626;BME280;66794;43.764;10.436;2023-09-18T13:21:51;101724.78;;;27.66;100.00
77626;BME280;66794;43.764;10.436;2023-09-18T13:24:30;101736.41;;;27.58;100.00
77626;BME280;66794;43.764;10.436;2023-09-18T13:26:56;101742.25;;;27.62;100.00
77626;BME280;66794;43.764;10.436;2023-09-18T13:29:24;101719.69;;;27.53;100.00
77626;BME280;66794;43.764;10.436;2023-09-18T13:31:50;101746.88;;;27.73;100.00
77626;BME280;66794;43.764;10.436;2023-09-18T13:34:16;101755.97;;;27.68;100.00
77626;BME280;66794;43.764;10.436;2023-09-18T13:36:47;101770.09;;;27.57;100.00